Time;durP1;ratioP1;P1;durP2;ratioP2;P2;SDS_P1;SDS_P2;PMS_P1;PMS_P2;Temp;Humidity;BMP_temperature;BMP_pressure;BME280_temperature;BME280_humidity;BME280_pressure;Samples;Min_cycle;Max_cycle;Signal;HPM_P1;HPM_P2
2023/09/20 00:01:37;;;;;;;;;;;;;;;21.63;65.46;97193.52;586758;242;68248;-67
2023/09/20 00:04:06;;;;;;;;;;;;;;;21.62;65.22;97178.55;586814;242;65068;-68
2023/09/20 00:06:34;;;;;;;;;;;;;;;21.61;65.47;97179.64;586727;242;67936;-67
2023/09/20 00:09:02;;;;;;;;;;;;;;;21.62;65.35;97182.02;586769;242;66307;-67
2023/09/20 00:11:30;;;;;;;;;;;;;;;21.62;65.22;97170.53;586764;242;65069;-67
2023/09/20 00:14:00;;;;;;;;;;;;;;;21.62;65.07;97167.86;586764;242;68505;-68
2023/09/20 00:16:29;;;;;;;;;;;;;;;21.61;65.31;97142.99;586759;242;68718;-68
2023/09/20 00:18:56;;;;;;;;;;;;;;;21.61;65.24;97152.89;586775;242;65239;-68
2023/09/20 00:21:24;;;;;;;;;;;;;;;21.61;65.44;97167.06;586768;242;68353;-67
2023/09/20 00:23:51;;;;;;;;;;;;;;;21.60;65.07;97164.64;586746;242;66281;-67
2023/09/20 00:26:19;;;;;;;;;;;;;;;21.61;65.21;97172.41;586739;242;65305;-68
2023/09/20 00:28:48;;;;;;;;;;;;;;;21.61;65.25;97171.62;586729;242;68834;-68
2023/09/20 00:31:16;;;;;;;;;;;;;;;21.61;65.33;97161.72;587852;239;69366;-68
2023/09/20 00:33:44;;;;;;;;;;;;;;;21.62;65.43;97167.86;591362;240;65224;-67
2023/09/20 00:36:19;;;;;;;;;;;;;;;21.61;65.15;97175.09;591365;240;66366;-68
2023/09/20 00:38:47;;;;;;;;;;;;;;;21.61;65.23;97177.76;591298;240;66458;-68
2023/09/20 00:41:15;;;;;;;;;;;;;;;21.62;65.55;97178.55;591355;240;66019;-68
2023/09/20 00:43:43;;;;;;;;;;;;;;;21.61;65.86;97174.29;591398;240;68724;-67
2023/09/20 00:46:12;;;;;;;;;;;;;;;21.61;65.77;97176.97;591303;240;66380;-67
2023/09/20 00:48:41;;;;;;;;;;;;;;;21.61;65.64;97174.29;591380;240;65054;-67
2023/09/20 00:51:09;;;;;;;;;;;;;;;21.61;65.66;97175.09;591360;240;68607;-67
2023/09/20 00:53:37;;;;;;;;;;;;;;;21.61;65.43;97174.29;591321;240;68560;-67
2023/09/20 00:56:06;;;;;;;;;;;;;;;21.60;65.92;97172.67;591337;240;62756;-67
2023/09/20 00:58:37;;;;;;;;;;;;;;;21.61;65.40;97169.73;591366;240;69808;-67
2023/09/20 01:01:05;;;;;;;;;;;;;;;21.61;66.00;97176.97;591341;240;69470;-67
2023/09/20 01:03:35;;;;;;;;;;;;;;;21.60;66.49;97172.67;591350;240;66385;-67
2023/09/20 01:06:05;;;;;;;;;;;;;;;21.59;66.27;97155.83;591329;240;68891;-67
2023/09/20 01:08:33;;;;;;;;;;;;;;;21.59;65.93;97158.50;591342;240;69693;-67
2023/09/20 01:11:01;;;;;;;;;;;;;;;21.60;65.70;97145.92;591373;240;62759;-67
2023/09/20 01:13:28;;;;;;;;;;;;;;;21.59;65.79;97152.36;591386;240;68949;-67
2023/09/20 01:15:58;;;;;;;;;;;;;;;21.60;66.14;97162.77;591335;240;66626;-68
2023/09/20 01:18:27;;;;;;;;;;;;;;;21.61;66.17;97160.92;591326;240;62923;-67
2023/09/20 01:20:54;;;;;;;;;;;;;;;21.59;65.76;97158.50;591329;240;68813;-67
2023/09/20 01:23:22;;;;;;;;;;;;;;;21.59;65.94;97163.85;591368;240;66342;-67
2023/09/20 01:25:49;;;;;;;;;;;;;;;21.60;66.23;97161.97;591347;240;62762;-67
2023/09/20 01:28:17;;;;;;;;;;;;;;;21.59;66.36;97161.17;591347;240;68779;-67
2023/09/20 01:30:50;;;;;;;;;;;;;;;21.60;65.74;97161.97;591128;239;68695;-67
2023/09/20 01:33:15;;;;;;;;;;;;;;;21.59;66.38;97174.55;586641;241;63811;-68
2023/09/20 01:35:45;;;;;;;;;;;;;;;21.58;65.95;97175.63;586737;242;68975;-67
2023/09/20 01:38:12;;;;;;;;;;;;;;;21.59;66.32;97174.55;586696;242;69610;-68
2023/09/20 01:40:39;;;;;;;;;;;;;;;21.58;66.41;97175.63;586729;242;63024;-67
2023/09/20 01:43:07;;;;;;;;;;;;;;;21.59;66.31;97176.42;586741;242;66515;-68
2023/09/20 01:45:35;;;;;;;;;;;;;;;21.59;66.32;97182.57;586687;242;69175;-67
2023/09/20 01:48:08;;;;;;;;;;;;;;;21.59;66.48;97168.41;586770;242;66315;-68
2023/09/20 01:50:36;;;;;;;;;;;;;;;21.58;66.20;97166.78;586750;242;68938;-67
2023/09/20 01:53:09;;;;;;;;;;;;;;;21.59;66.42;97168.41;586698;242;66289;-68
2023/09/20 01:55:42;;;;;;;;;;;;;;;21.58;65.77;97169.45;586722;242;63535;-68
2023/09/20 01:58:12;;;;;;;;;;;;;;;21.58;66.20;97170.28;586723;242;68682;-68
2023/09/20 02:00:40;;;;;;;;;;;;;;;21.58;66.33;97167.61;586627;241;67325;-69
2023/09/20 02:03:14;;;;;;;;;;;;;;;21.58;66.17;97169.45;586756;242;62543;-70
2023/09/20 02:05:38;;;;;;;;;;;;;;;21.57;66.28;97165.19;586435;242;68710;-70
2023/09/20 02:08:07;;;;;;;;;;;;;;;21.59;66.16;97165.73;586702;242;66335;-70
2023/09/20 02:10:36;;;;;;;;;;;;;;;21.58;66.23;97161.43;586699;242;63040;-70
2023/09/20 02:13:04;;;;;;;;;;;;;;;21.57;66.52;97152.61;586734;242;69050;-70
2023/09/20 02:15:34;;;;;;;;;;;;;;;21.57;66.33;97155.29;586696;242;66338;-70
2023/09/20 02:18:05;;;;;;;;;;;;;;;21.58;66.14;97153.41;586782;242;63048;-70
2023/09/20 02:20:39;;;;;;;;;;;;;;;21.57;66.46;97147.27;586736;242;69019;-70
2023/09/20 02:23:07;;;;;;;;;;;;;;;21.57;66.15;97151.82;586730;242;68730;-68
2023/09/20 02:25:35;;;;;;;;;;;;;;;21.57;66.06;97152.61;586736;242;65111;-68
2023/09/20 02:28:03;;;;;;;;;;;;;;;21.57;66.03;97152.61;586718;242;66327;-68
2023/09/20 02:30:39;;;;;;;;;;;;;;;21.57;66.23;97149.14;586765;242;68720;-67
2023/09/20 02:33:08;;;;;;;;;;;;;;;21.57;66.30;97155.29;586375;242;65913;-67
2023/09/20 02:35:39;;;;;;;;;;;;;;;21.56;66.48;97156.38;586615;242;66722;-67
2023/09/20 02:38:07;;;;;;;;;;;;;;;21.56;66.34;97153.70;586615;242;68523;-67
2023/09/20 02:40:35;;;;;;;;;;;;;;;21.57;66.45;97162.52;586614;242;65202;-68
2023/09/20 02:43:08;;;;;;;;;;;;;;;21.57;66.34;97154.49;586657;242;66716;-68
2023/09/20 02:45:39;;;;;;;;;;;;;;;21.58;66.04;97164.11;586645;242;69728;-68
2023/09/20 02:48:06;;;;;;;;;;;;;;;21.57;66.78;97162.52;586498;242;62964;-68
2023/09/20 02:50:33;;;;;;;;;;;;;;;21.56;66.45;97168.95;586643;242;68847;-69
2023/09/20 02:53:01;;;;;;;;;;;;;;;21.56;66.43;97158.25;586606;242;68837;-69
2023/09/20 02:55:32;;;;;;;;;;;;;;;21.56;66.62;97158.25;586636;242;62725;-69
2023/09/20 02:57:59;;;;;;;;;;;;;;;21.56;66.69;97159.05;586676;242;68647;-70
2023/09/20 03:00:30;;;;;;;;;;;;;;;21.57;66.61;97159.84;586598;242;69213;-70
2023/09/20 03:03:04;;;;;;;;;;;;;;;21.56;66.70;97155.58;586622;242;65145;-69
2023/09/20 03:05:29;;;;;;;;;;;;;;;21.57;66.56;97157.17;586281;242;66681;-69
2023/09/20 03:07:57;;;;;;;;;;;;;;;21.55;66.49;97152.08;586627;242;68640;-69
2023/09/20 03:10:25;;;;;;;;;;;;;;;21.55;67.08;97154.75;586634;242;63048;-68
2023/09/20 03:12:55;;;;;;;;;;;;;;;21.55;66.63;97148.61;586678;242;69211;-68
2023/09/20 03:15:23;;;;;;;;;;;;;;;21.56;66.67;97158.25;586629;242;68731;-68
2023/09/20 03:17:53;;;;;;;;;;;;;;;21.55;66.68;97154.75;586702;242;62718;-69
2023/09/20 03:20:25;;;;;;;;;;;;;;;21.55;66.61;97160.10;586457;242;69197;-68
2023/09/20 03:23:01;;;;;;;;;;;;;;;21.55;66.71;97154.75;586634;242;47246;-68
2023/09/20 03:25:36;;;;;;;;;;;;;;;21.55;66.84;97157.42;586442;242;41578;-67
2023/09/20 03:28:12;;;;;;;;;;;;;;;21.54;67.10;97158.51;585949;239;49806;-67
2023/09/20 03:30:40;;;;;;;;;;;;;;;21.54;67.02;97155.84;586611;238;68558;-67
2023/09/20 03:33:08;;;;;;;;;;;;;;;21.55;67.24;97153.95;585911;242;62695;-67
2023/09/20 03:35:37;;;;;;;;;;;;;;;21.54;67.63;97145.14;586726;242;69085;-67
2023/09/20 03:38:04;;;;;;;;;;;;;;;21.54;67.06;97147.02;586725;242;68786;-67
2023/09/20 03:40:33;;;;;;;;;;;;;;;21.54;67.54;97152.36;586788;242;65921;-67
2023/09/20 03:43:03;;;;;;;;;;;;;;;21.53;67.09;97151.57;586444;242;48902;-68
2023/09/20 03:45:31;;;;;;;;;;;;;;;21.54;67.35;97147.02;586727;242;69242;-68
2023/09/20 03:48:01;;;;;;;;;;;;;;;21.54;67.40;97147.02;586745;242;63201;-68
2023/09/20 03:50:28;;;;;;;;;;;;;;;21.53;67.25;97150.77;586715;242;69178;-68
2023/09/20 03:52:55;;;;;;;;;;;;;;;21.53;67.16;97140.88;586773;242;69711;-68
2023/09/20 03:55:23;;;;;;;;;;;;;;;21.53;67.23;97145.42;586738;242;65710;-67
2023/09/20 03:57:51;;;;;;;;;;;;;;;21.53;67.36;97140.88;586723;242;66431;-66
2023/09/20 04:00:28;;;;;;;;;;;;;;;21.53;67.51;97132.85;586754;242;68554;-67
2023/09/20 04:02:51;;;;;;;;;;;;;;;21.53;67.28;97140.88;586698;239;65868;-68
2023/09/20 04:05:19;;;;;;;;;;;;;;;21.53;67.41;97145.42;586731;242;69235;-67
2023/09/20 04:07:50;;;;;;;;;;;;;;;21.53;67.28;97140.08;586834;242;68124;-68
2023/09/20 04:10:18;;;;;;;;;;;;;;;21.53;67.49;97143.55;586743;242;63039;-68
2023/09/20 04:12:47;;;;;;;;;;;;;;;21.52;67.33;97144.59;586749;242;68537;-69
2023/09/20 04:15:15;;;;;;;;;;;;;;;21.54;67.51;97147.02;586743;242;68705;-69
2023/09/20 04:17:43;;;;;;;;;;;;;;;21.53;67.23;97143.55;586776;242;65106;-69
2023/09/20 04:20:12;;;;;;;;;;;;;;;21.52;67.47;97141.92;586802;242;65914;-69
2023/09/20 04:22:42;;;;;;;;;;;;;;;21.52;67.32;97144.59;586740;242;65931;-69
2023/09/20 04:25:13;;;;;;;;;;;;;;;21.52;67.36;97144.59;586762;242;62970;-68
2023/09/20 04:27:43;;;;;;;;;;;;;;;21.53;67.16;97156.13;586788;241;45693;-69
2023/09/20 04:30:13;;;;;;;;;;;;;;;21.53;67.47;97156.13;586729;242;68641;-69
2023/09/20 04:32:40;;;;;;;;;;;;;;;21.52;67.52;97155.30;586732;239;65079;-69
2023/09/20 04:35:10;;;;;;;;;;;;;;;21.52;67.41;97152.63;586619;242;48398;-69
2023/09/20 04:37:38;;;;;;;;;;;;;;;21.51;67.43;97156.38;586730;242;69024;-69
2023/09/20 04:40:09;;;;;;;;;;;;;;;21.52;67.59;97152.63;586722;242;63025;-68
2023/09/20 04:42:38;;;;;;;;;;;;;;;21.51;67.59;97151.03;586739;242;69142;-69
2023/09/20 04:45:14;;;;;;;;;;;;;;;21.52;67.48;97159.84;586744;242;67289;-70
2023/09/20 04:47:39;;;;;;;;;;;;;;;21.50;67.20;97160.93;586636;241;64970;-68
2023/09/20 04:50:07;;;;;;;;;;;;;;;21.50;67.42;97152.91;586735;242;66933;-68
2023/09/20 04:52:34;;;;;;;;;;;;;;;21.50;67.56;97155.59;586736;242;66688;-68
2023/09/20 04:55:02;;;;;;;;;;;;;;;21.50;67.53;97154.79;586739;242;64994;-68
2023/09/20 04:57:30;;;;;;;;;;;;;;;21.50;67.13;97154.79;586775;242;68838;-68
2023/09/20 04:59:59;;;;;;;;;;;;;;;21.52;67.35;97154.50;586757;242;68682;-68
2023/09/20 05:02:29;;;;;;;;;;;;;;;21.50;67.45;97152.91;586769;242;65261;-68
2023/09/20 05:04:57;;;;;;;;;;;;;;;21.50;67.22;97154.79;586722;242;66262;-68
2023/09/20 05:07:27;;;;;;;;;;;;;;;21.49;67.12;97159.31;586743;242;68726;-68
2023/09/20 05:09:56;;;;;;;;;;;;;;;21.50;67.48;97162.81;586722;242;65754;-68
2023/09/20 05:12:25;;;;;;;;;;;;;;;21.50;67.68;97152.11;586734;242;68656;-68
2023/09/20 05:14:52;;;;;;;;;;;;;;;21.49;67.45;97151.29;586742;242;70403;-68
2023/09/20 05:17:20;;;;;;;;;;;;;;;21.49;67.56;97150.49;586741;242;65745;-68
2023/09/20 05:19:48;;;;;;;;;;;;;;;21.50;67.51;97152.91;586741;242;68919;-68
2023/09/20 05:22:16;;;;;;;;;;;;;;;21.50;67.86;97141.42;586731;242;67105;-68
2023/09/20 05:24:43;;;;;;;;;;;;;;;21.49;67.75;97148.61;586742;242;62712;-68
2023/09/20 05:27:11;;;;;;;;;;;;;;;21.49;67.57;97151.29;586752;242;69178;-68
2023/09/20 05:29:39;;;;;;;;;;;;;;;21.49;67.62;97153.96;586634;242;69989;-68
2023/09/20 05:32:09;;;;;;;;;;;;;;;21.49;67.47;97151.29;589504;239;65240;-68
2023/09/20 05:34:39;;;;;;;;;;;;;;;21.49;67.51;97159.31;590990;240;48741;-68
2023/09/20 05:37:07;;;;;;;;;;;;;;;21.49;67.49;97158.52;591334;240;66484;-69
2023/09/20 05:39:35;;;;;;;;;;;;;;;21.49;67.43;97161.19;591344;240;63505;-68
2023/09/20 05:42:05;;;;;;;;;;;;;;;21.49;67.61;97155.84;591352;240;66616;-68
2023/09/20 05:44:32;;;;;;;;;;;;;;;21.49;67.17;97161.19;591310;240;68871;-67
2023/09/20 05:47:00;;;;;;;;;;;;;;;21.50;67.39;97162.81;591371;240;62816;-67
2023/09/20 05:49:29;;;;;;;;;;;;;;;21.48;67.24;97171.09;591321;240;68395;-67
2023/09/20 05:51:57;;;;;;;;;;;;;;;21.48;67.61;97165.74;591320;240;69035;-67
2023/09/20 05:54:25;;;;;;;;;;;;;;;21.48;67.32;97168.41;591300;240;65046;-67
2023/09/20 05:56:53;;;;;;;;;;;;;;;21.48;67.37;97173.77;591352;240;66551;-67
2023/09/20 05:59:22;;;;;;;;;;;;;;;21.48;67.49;97179.11;591305;240;68528;-67
2023/09/20 06:01:50;;;;;;;;;;;;;;;21.49;67.39;97171.89;591346;240;62868;-67
2023/09/20 06:04:18;;;;;;;;;;;;;;;21.48;67.75;97176.44;591222;240;68660;-66
2023/09/20 06:06:47;;;;;;;;;;;;;;;21.49;67.44;97183.38;590908;240;66373;-68
2023/09/20 06:09:15;;;;;;;;;;;;;;;21.49;67.62;97187.92;591208;240;65067;-64
2023/09/20 06:11:43;;;;;;;;;;;;;;;21.48;67.51;97186.34;591315;240;68409;-66
2023/09/20 06:14:10;;;;;;;;;;;;;;;21.48;67.73;97186.34;591188;240;68729;-67
2023/09/20 06:16:38;;;;;;;;;;;;;;;21.48;67.63;97192.48;591302;240;65029;-65
2023/09/20 06:19:05;;;;;;;;;;;;;;;21.50;65.82;97190.34;591133;240;68852;-68
2023/09/20 06:21:33;;;;;;;;;;;;;;;21.52;64.89;97190.06;591216;240;66356;-67
2023/09/20 06:24:02;;;;;;;;;;;;;;;21.53;64.85;97201.58;594886;238;62836;-68
2023/09/20 06:26:30;;;;;;;;;;;;;;;21.54;67.34;97197.83;595465;238;68873;-69
2023/09/20 06:28:58;;;;;;;;;;;;;;;21.57;69.35;97205.30;595403;238;66605;-68
2023/09/20 06:31:26;;;;;;;;;;;;;;;21.56;68.80;97204.51;596145;237;62765;-74
2023/09/20 06:33:53;;;;;;;;;;;;;;;21.56;68.94;97206.39;597488;237;68998;-69
2023/09/20 06:36:22;;;;;;;;;;;;;;;21.57;69.06;97205.30;597473;237;68322;-68
2023/09/20 06:38:54;;;;;;;;;;;;;;;21.58;68.69;97212.24;597478;237;62836;-68
2023/09/20 06:41:20;;;;;;;;;;;;;;;21.58;68.70;97212.24;597256;237;68882;-68
2023/09/20 06:43:48;;;;;;;;;;;;;;;21.59;69.00;97219.22;597432;237;66752;-69
2023/09/20 06:46:15;;;;;;;;;;;;;;;21.59;68.84;97219.22;597512;237;64922;-70
2023/09/20 06:48:43;;;;;;;;;;;;;;;21.59;68.92;97222.69;597459;237;69586;-69
2023/09/20 06:51:10;;;;;;;;;;;;;;;21.58;68.69;97230.97;597440;237;68594;-69
2023/09/20 06:53:38;;;;;;;;;;;;;;;21.57;68.83;97227.49;597523;237;65208;-69
2023/09/20 06:56:05;;;;;;;;;;;;;;;21.57;68.58;97240.07;597533;237;68641;-69
2023/09/20 06:58:34;;;;;;;;;;;;;;;21.55;68.70;97236.86;597468;237;66605;-69
2023/09/20 07:01:04;;;;;;;;;;;;;;;21.56;68.96;97241.15;597490;237;63041;-69
2023/09/20 07:03:32;;;;;;;;;;;;;;;21.55;69.09;97242.20;597503;237;66078;-69
2023/09/20 07:06:01;;;;;;;;;;;;;;;21.56;69.24;97251.84;597481;237;68818;-69
2023/09/20 07:08:34;;;;;;;;;;;;;;;21.56;69.48;97241.15;597449;237;62846;-69
2023/09/20 07:10:58;;;;;;;;;;;;;;;21.55;69.60;97247.55;597304;237;69102;-69
2023/09/20 07:13:26;;;;;;;;;;;;;;;21.54;69.73;97244.08;597387;237;68614;-68
2023/09/20 07:15:58;;;;;;;;;;;;;;;21.55;69.92;97247.55;597493;237;63101;-68
2023/09/20 07:18:27;;;;;;;;;;;;;;;21.55;70.26;97248.34;597436;237;66354;-69
2023/09/20 07:20:55;;;;;;;;;;;;;;;21.55;70.82;97253.70;597495;237;68814;-69
2023/09/20 07:23:23;;;;;;;;;;;;;;;21.54;70.79;97251.30;597519;237;62998;-68
2023/09/20 07:25:51;;;;;;;;;;;;;;;21.55;71.40;97258.25;597514;237;68667;-69
2023/09/20 07:28:19;;;;;;;;;;;;;;;21.54;71.16;97254.78;597520;237;66597;-69
2023/09/20 07:30:47;;;;;;;;;;;;;;;21.54;71.17;97265.47;597480;237;64888;-68
2023/09/20 07:33:19;;;;;;;;;;;;;;;21.54;70.83;97264.67;597412;237;66553;-69
2023/09/20 07:35:47;;;;;;;;;;;;;;;21.54;70.45;97260.13;597438;237;68741;-68
2023/09/20 07:38:25;;;;;;;;;;;;;;;21.53;70.42;97266.55;597527;237;65698;-69
2023/09/20 07:40:50;;;;;;;;;;;;;;;21.54;70.52;97270.02;597232;237;69111;-69
2023/09/20 07:43:18;;;;;;;;;;;;;;;21.53;70.25;97266.55;597332;237;68811;-69
2023/09/20 07:45:45;;;;;;;;;;;;;;;21.54;70.73;97264.67;597491;237;63018;-69
2023/09/20 07:48:16;;;;;;;;;;;;;;;21.54;70.53;97264.67;597456;237;69874;-68
2023/09/20 07:50:52;;;;;;;;;;;;;;;21.53;70.24;97269.23;597592;237;66504;-67
2023/09/20 07:53:17;;;;;;;;;;;;;;;21.54;70.93;97276.17;597272;237;62795;-65
2023/09/20 07:55:48;;;;;;;;;;;;;;;21.53;71.11;97268.43;597463;237;68946;-65
2023/09/20 07:58:19;;;;;;;;;;;;;;;21.55;71.22;97271.62;597181;237;68826;-68
2023/09/20 08:00:47;;;;;;;;;;;;;;;21.54;71.24;97270.02;597454;237;65066;-72
2023/09/20 08:03:15;;;;;;;;;;;;;;;21.54;70.86;97270.82;597562;237;68769;-68
2023/09/20 08:05:43;;;;;;;;;;;;;;;21.53;70.13;97263.88;597568;237;66717;-68
2023/09/20 08:08:10;;;;;;;;;;;;;;;21.54;70.44;97262.00;597363;237;62775;-68
2023/09/20 08:10:40;;;;;;;;;;;;;;;21.55;70.73;97266.27;597464;237;66485;-67
2023/09/20 08:13:08;;;;;;;;;;;;;;;21.52;66.83;97256.91;597533;237;68296;-67
2023/09/20 08:15:38;;;;;;;;;;;;;;;21.56;66.43;97262.55;597519;237;62669;-68
2023/09/20 08:20:50;;;;;;;;;;;;;;;21.58;68.91;97258.53;597537;237;66465;-68
2023/09/20 09:02:16;;;;;;;;;;;;;;;21.55;69.51;97236.86;593477;239;67375;-71
2023/09/20 09:04:45;;;;;;;;;;;;;;;21.56;70.25;97230.45;593705;239;62603;-70
2023/09/20 09:07:13;;;;;;;;;;;;;;;21.55;71.24;97223.48;593371;239;66666;-69
2023/09/20 09:09:41;;;;;;;;;;;;;;;21.55;71.16;97229.63;593576;239;68513;-70
2023/09/20 09:12:09;;;;;;;;;;;;;;;21.54;68.56;97225.36;593696;239;65108;-71
2023/09/20 09:14:40;;;;;;;;;;;;;;;21.56;68.11;97219.76;593372;239;69104;-70
2023/09/20 09:17:09;;;;;;;;;;;;;;;21.57;67.05;97213.33;593551;239;69241;-66
2023/09/20 09:19:38;;;;;;;;;;;;;;;21.61;68.82;97217.08;593522;239;62961;-66
2023/09/20 09:22:06;;;;;;;;;;;;;;;21.59;69.33;97213.87;593827;239;68910;-66
2023/09/20 09:24:46;;;;;;;;;;;;;;;21.58;70.25;97221.09;593744;239;66449;-67
2023/09/20 09:27:15;;;;;;;;;;;;;;;21.57;70.44;97211.45;593674;239;65388;-69
2023/09/20 09:29:43;;;;;;;;;;;;;;;21.58;69.07;97207.72;593581;239;68700;-66
2023/09/20 09:32:11;;;;;;;;;;;;;;;21.59;70.87;97209.31;586739;239;68606;-66
2023/09/20 09:34:41;;;;;;;;;;;;;;;21.57;70.42;97206.09;586437;242;65230;-67
2023/09/20 09:37:08;;;;;;;;;;;;;;;21.57;70.09;97200.75;586505;242;66280;-66
2023/09/20 09:39:36;;;;;;;;;;;;;;;21.57;69.89;97198.08;586297;242;68298;-66
2023/09/20 09:42:04;;;;;;;;;;;;;;;21.57;70.08;97200.75;586280;242;62804;-67
2023/09/20 09:44:48;;;;;;;;;;;;;;;21.58;70.00;97198.88;586377;242;69250;-68
2023/09/20 09:47:17;;;;;;;;;;;;;;;21.58;70.15;97204.22;584952;242;66436;-68
2023/09/20 09:49:46;;;;;;;;;;;;;;;21.58;70.39;97198.88;586123;242;65058;-67
2023/09/20 09:52:14;;;;;;;;;;;;;;;21.58;70.64;97202.38;585472;242;67410;-67
2023/09/20 09:54:43;;;;;;;;;;;;;;;21.49;71.03;97194.07;586146;242;66472;-67
2023/09/20 09:57:11;;;;;;;;;;;;;;;21.57;71.04;97202.63;586255;242;66242;-67
2023/09/20 09:59:39;;;;;;;;;;;;;;;21.58;71.59;97201.55;586303;242;68607;-67
2023/09/20 10:02:11;;;;;;;;;;;;;;;21.58;71.73;97198.88;586345;242;68628;-71
2023/09/20 10:04:39;;;;;;;;;;;;;;;21.58;71.63;97190.85;586445;239;64874;-72
2023/09/20 10:07:14;;;;;;;;;;;;;;;21.57;66.52;97189.26;586166;242;66544;-72
2023/09/20 10:09:42;;;;;;;;;;;;;;;21.59;66.19;97187.13;586166;242;68520;-73
2023/09/20 10:12:10;;;;;;;;;;;;;;;21.61;64.55;97187.66;586443;242;64972;-73
2023/09/20 10:14:39;;;;;;;;;;;;;;;21.62;64.05;97182.02;586343;242;68780;-73
2023/09/20 10:17:06;;;;;;;;;;;;;;;21.64;64.24;97192.47;585947;242;68270;-73
2023/09/20 10:19:36;;;;;;;;;;;;;;;21.65;63.67;97199.41;586418;242;62814;-73
2023/09/20 10:22:08;;;;;;;;;;;;;;;21.65;63.06;97186.03;585927;242;68796;-73
2023/09/20 10:24:53;;;;;;;;;;;;;;;21.66;63.86;97187.63;586546;242;66078;-66
2023/09/20 10:27:22;;;;;;;;;;;;;;;21.66;65.92;97182.27;586281;242;65344;-66
2023/09/20 10:30:05;;;;;;;;;;;;;;;21.66;64.16;97182.27;586618;242;68793;-67
2023/09/20 10:32:34;;;;;;;;;;;;;;;21.66;66.06;97177.75;589095;239;68986;-68
2023/09/20 10:35:20;;;;;;;;;;;;;;;21.66;67.43;97174.25;590118;240;64925;-68
2023/09/20 10:37:59;;;;;;;;;;;;;;;21.66;68.32;97175.08;591033;240;66783;-68
2023/09/20 10:40:48;;;;;;;;;;;;;;;21.65;68.58;97169.98;591186;240;66651;-68
2023/09/20 10:43:18;;;;;;;;;;;;;;;21.63;70.13;97188.97;591146;240;62886;-68
2023/09/20 10:45:47;;;;;;;;;;;;;;;21.62;70.58;97165.98;591135;240;68892;-68
2023/09/20 10:48:16;;;;;;;;;;;;;;;21.62;70.95;97175.88;593360;238;66445;-68
2023/09/20 10:50:47;;;;;;;;;;;;;;;21.60;71.09;97167.32;596129;238;65073;-68
2023/09/20 10:53:22;;;;;;;;;;;;;;;21.61;71.22;97174.29;595953;238;68687;-68
2023/09/20 10:55:46;;;;;;;;;;;;;;;21.59;71.53;97171.88;595716;238;66633;-67
2023/09/20 10:58:18;;;;;;;;;;;;;;;21.59;71.60;97166.52;595908;238;65315;-67
2023/09/20 11:00:47;;;;;;;;;;;;;;;21.58;71.63;97162.26;595944;238;66804;-68
2023/09/20 11:03:17;;;;;;;;;;;;;;;21.59;71.89;97155.83;596031;238;66464;-67
2023/09/20 11:05:44;;;;;;;;;;;;;;;21.58;71.81;97159.59;596059;238;65130;-67
2023/09/20 11:08:15;;;;;;;;;;;;;;;21.58;71.58;97156.09;595916;238;68858;-68
2023/09/20 11:10:46;;;;;;;;;;;;;;;21.57;71.50;97147.27;593867;238;66419;-68
2023/09/20 11:13:16;;;;;;;;;;;;;;;21.58;71.37;97154.23;590640;240;63875;-66
2023/09/20 11:15:47;;;;;;;;;;;;;;;21.59;71.51;97149.69;590798;240;66343;-67
2023/09/20 11:18:14;;;;;;;;;;;;;;;21.58;71.24;97150.73;590264;240;66557;-67
2023/09/20 11:20:43;;;;;;;;;;;;;;;21.57;71.04;97141.13;590931;240;65086;-68
2023/09/20 11:23:11;;;;;;;;;;;;;;;21.59;71.17;97138.98;591117;240;68844;-65
2023/09/20 11:25:41;;;;;;;;;;;;;;;21.58;71.18;97135.52;591119;240;68623;-67
2023/09/20 11:28:12;;;;;;;;;;;;;;;21.58;71.37;97135.52;591138;240;62185;-67
2023/09/20 11:30:41;;;;;;;;;;;;;;;21.58;71.21;97132.84;591105;239;69046;-69
2023/09/20 11:33:10;;;;;;;;;;;;;;;21.58;71.38;97127.49;593892;239;64725;-70
2023/09/20 11:35:38;;;;;;;;;;;;;;;21.58;71.42;97127.49;593685;238;62666;-68
2023/09/20 11:38:07;;;;;;;;;;;;;;;21.58;71.39;97127.49;593861;239;68868;-68
2023/09/20 11:40:41;;;;;;;;;;;;;;;21.57;71.14;97128.55;593913;239;68459;-69
2023/09/20 11:43:13;;;;;;;;;;;;;;;21.58;71.14;97126.67;593806;239;63563;-69
2023/09/20 11:45:41;;;;;;;;;;;;;;;21.58;71.22;97122.14;593717;239;66669;-68
2023/09/20 11:48:13;;;;;;;;;;;;;;;21.59;71.35;97123.73;593879;239;66655;-68
2023/09/20 11:50:38;;;;;;;;;;;;;;;21.58;71.35;97118.64;593565;239;65010;-68
2023/09/20 11:53:06;;;;;;;;;;;;;;;21.57;71.20;97120.52;593761;239;68986;-69
2023/09/20 11:55:33;;;;;;;;;;;;;;;21.57;71.07;97115.17;593869;239;68726;-68
2023/09/20 11:58:01;;;;;;;;;;;;;;;21.57;71.00;97112.50;593816;239;65068;-67
2023/09/20 12:00:29;;;;;;;;;;;;;;;21.58;71.14;97107.95;593923;239;69093;-67
2023/09/20 12:02:57;;;;;;;;;;;;;;;21.57;71.14;97104.48;593788;239;66622;-67
2023/09/20 12:05:25;;;;;;;;;;;;;;;21.58;71.06;97099.92;593836;239;65916;-67
2023/09/20 12:07:59;;;;;;;;;;;;;;;21.58;71.07;97102.60;593840;239;68267;-68
2023/09/20 12:10:27;;;;;;;;;;;;;;;21.58;71.07;97099.92;593704;239;68506;-68
2023/09/20 12:12:55;;;;;;;;;;;;;;;21.57;70.82;97088.44;593757;239;62998;-68
2023/09/20 12:15:23;;;;;;;;;;;;;;;21.57;70.69;97090.31;593867;239;66583;-68
2023/09/20 12:17:51;;;;;;;;;;;;;;;21.59;69.62;97088.17;593870;239;68700;-70
2023/09/20 12:20:19;;;;;;;;;;;;;;;21.58;66.59;97083.88;593903;239;65482;-68
2023/09/20 12:22:47;;;;;;;;;;;;;;;21.61;65.90;97088.71;593940;239;68610;-72
2023/09/20 12:25:17;;;;;;;;;;;;;;;21.62;65.69;97092.97;593819;239;66568;-68
2023/09/20 12:27:44;;;;;;;;;;;;;;;21.62;64.70;97088.42;593924;239;64961;-66
2023/09/20 12:30:12;;;;;;;;;;;;;;;21.65;68.29;97089.75;593923;239;66385;-69
2023/09/20 12:32:43;;;;;;;;;;;;;;;21.64;66.83;97085.48;593852;239;66705;-68
2023/09/20 12:35:11;;;;;;;;;;;;;;;21.64;67.64;97077.47;593910;239;65057;-68
2023/09/20 12:37:39;;;;;;;;;;;;;;;21.64;67.99;97072.11;593935;239;68585;-66
2023/09/20 12:40:08;;;;;;;;;;;;;;;21.65;68.93;97073.70;593942;239;68054;-67
2023/09/20 12:42:37;;;;;;;;;;;;;;;21.63;69.16;97071.29;593902;239;65047;-67
2023/09/20 12:45:07;;;;;;;;;;;;;;;21.64;69.45;97077.47;593690;239;66165;-67
2023/09/20 12:47:36;;;;;;;;;;;;;;;21.63;69.46;97075.84;593818;239;68480;-66
2023/09/20 12:50:06;;;;;;;;;;;;;;;21.62;69.73;97067.03;593930;239;63081;-69
2023/09/20 12:52:34;;;;;;;;;;;;;;;21.62;69.82;97053.66;593908;239;68504;-68
2023/09/20 12:55:01;;;;;;;;;;;;;;;21.63;69.89;97065.15;593844;239;66268;-68
2023/09/20 12:57:29;;;;;;;;;;;;;;;21.63;69.68;97055.24;593892;239;65310;-68
2023/09/20 12:59:57;;;;;;;;;;;;;;;21.63;69.85;97055.24;593867;239;68730;-68
2023/09/20 13:02:27;;;;;;;;;;;;;;;21.63;69.65;97057.13;593857;239;66625;-68
2023/09/20 13:04:59;;;;;;;;;;;;;;;21.63;69.73;97049.10;593888;239;62795;-68
2023/09/20 13:07:23;;;;;;;;;;;;;;;21.63;69.60;97051.77;593658;239;68926;-68
2023/09/20 13:09:51;;;;;;;;;;;;;;;21.63;69.32;97049.89;593854;239;68565;-71
2023/09/20 13:12:20;;;;;;;;;;;;;;;21.63;68.88;97046.42;593937;239;64943;-67
2023/09/20 13:14:48;;;;;;;;;;;;;;;21.64;66.27;97046.17;593898;239;68654;-68
2023/09/20 13:17:16;;;;;;;;;;;;;;;21.66;65.71;97040.53;593906;239;68599;-68
2023/09/20 13:19:43;;;;;;;;;;;;;;;21.68;65.26;97046.41;594436;237;62813;-68
2023/09/20 13:22:11;;;;;;;;;;;;;;;21.69;65.18;97037.33;594047;237;66149;-68
2023/09/20 13:24:40;;;;;;;;;;;;;;;21.68;65.03;97035.70;593935;239;68626;-68
2023/09/20 13:27:08;;;;;;;;;;;;;;;21.70;65.05;97033.56;593817;239;64991;-67
2023/09/20 13:29:36;;;;;;;;;;;;;;;21.70;65.18;97038.92;593914;239;66920;-67
2023/09/20 13:32:07;;;;;;;;;;;;;;;21.70;65.38;97033.56;589727;239;68653;-67
2023/09/20 13:34:33;;;;;;;;;;;;;;;21.69;65.57;97030.10;586563;241;62705;-69
2023/09/20 13:37:00;;;;;;;;;;;;;;;21.70;65.73;97030.89;586542;242;66453;-67
2023/09/20 13:39:28;;;;;;;;;;;;;;;21.70;65.58;97028.22;586675;242;68837;-68